Time;durP1;ratioP1;P1;durP2;ratioP2;P2;SDS_P1;SDS_P2;PMS_P1;PMS_P2;Temp;Humidity;BMP_temperature;BMP_pressure;BME280_temperature;BME280_humidity;BME280_pressure;Samples;Min_cycle;Max_cycle;Signal;HPM_P1;HPM_P2
2022/11/05 00:17:14;;;;;;;40.50;36.80;;;;;;;10.19;94.84;96983.09;103308;1310;22486;-78
2022/11/05 00:19:42;;;;;;;46.40;41.90;;;;;;;10.20;95.18;96978.60;103065;1310;25433;-78
2022/11/05 00:27:51;;;;;;;41.70;37.80;;;;;;;10.28;95.32;97004.44;103304;1310;22570;-79
2022/11/05 00:30:23;;;;;;;44.10;39.80;;;;;;;10.24;95.64;97008.41;103164;1301;22524;-79
2022/11/05 00:32:52;;;;;;;47.10;42.10;;;;;;;10.21;96.88;97015.09;103433;1294;22481;-79
2022/11/05 00:35:21;;;;;;;50.30;45.50;;;;;;;10.24;97.31;97007.85;103477;1284;22661;-79
2022/11/05 00:37:52;;;;;;;52.10;46.70;;;;;;;10.26;96.55;97006.10;103150;1309;24282;-79
2022/11/05 00:40:23;;;;;;;56.60;50.70;;;;;;;10.30;96.73;97003.04;103153;1288;24507;-78
2022/11/05 00:45:39;;;;;;;44.30;40.00;;;;;;;10.36;98.48;97008.95;103081;1309;22597;-77
2022/11/05 00:50:54;;;;;;;43.70;39.40;;;;;;;10.38;98.06;97005.94;103099;1304;22786;-78
2022/11/05 00:53:22;;;;;;;46.10;41.60;;;;;;;10.40;97.89;97004.16;103172;1309;22957;-77
2022/11/05 00:55:50;;;;;;;43.40;39.30;;;;;;;10.42;98.00;97002.05;103214;1309;25469;-78
2022/11/05 00:58:21;;;;;;;41.50;37.60;;;;;;;10.43;99.16;97006.25;103078;1295;22598;-78
2022/11/05 01:00:52;;;;;;;39.20;35.60;;;;;;;10.43;99.78;97006.75;103122;1310;24456;-78
2022/11/05 01:03:26;;;;;;;40.10;36.30;;;;;;;10.41;99.76;97013.83;103060;1310;22882;-77
2022/11/05 01:06:06;;;;;;;39.90;36.10;;;;;;;10.37;99.59;97013.73;103128;1310;25302;-78
2022/11/05 01:08:34;;;;;;;35.40;32.10;;;;;;;10.34;99.76;97014.54;102986;1304;23908;-77
2022/11/05 01:11:09;;;;;;;25.60;23.20;;;;;;;10.30;99.93;97016.11;103107;1310;24267;-78
2022/11/05 01:13:38;;;;;;;18.50;16.70;;;;;;;10.16;99.43;97026.31;102971;1310;22749;-78
2022/11/05 01:16:09;;;;;;;18.10;16.30;;;;;;;10.04;99.25;97024.27;103122;1298;22602;-78
2022/11/05 01:18:37;;;;;;;13.60;12.20;;;;;;;9.96;98.55;97026.29;103103;1309;24691;-78
2022/11/05 01:21:12;;;;;;;15.70;14.10;;;;;;;9.87;98.37;97033.44;102984;1307;22675;-78
2022/11/05 01:23:43;;;;;;;13.60;12.30;;;;;;;9.82;98.37;97044.02;103029;1311;23875;-78
2022/11/05 01:26:11;;;;;;;13.20;12.00;;;;;;;9.80;98.72;97046.55;102806;1289;22666;-79
2022/11/05 01:28:39;;;;;;;13.00;10.70;;;;;;;9.74;98.59;97044.90;103149;1310;22604;-79
2022/11/05 01:31:07;;;;;;;10.40;9.30;;;;;;;9.66;98.05;97046.56;103096;1287;22936;-79
2022/11/05 01:33:35;;;;;;;10.40;7.50;;;;;;;9.54;97.58;97047.90;103109;1284;22593;-79
2022/11/05 01:36:04;;;;;;;9.40;7.60;;;;;;;9.46;97.72;97050.23;103162;1309;22589;-79
2022/11/05 01:38:31;;;;;;;8.60;7.70;;;;;;;9.45;97.61;97052.75;103126;1287;22881;-79
2022/11/05 01:40:59;;;;;;;8.20;7.20;;;;;;;9.42;97.18;97062.45;103108;1294;25423;-79
2022/11/05 01:43:51;;;;;;;7.70;6.50;;;;;;;9.36;97.16;97063.46;103103;1310;22683;-79
2022/11/05 01:46:28;;;;;;;8.00;6.30;;;;;;;9.32;96.94;97070.34;103107;1309;22524;-79
2022/11/05 01:49:05;;;;;;;9.10;6.70;;;;;;;9.28;97.04;97077.29;102940;1309;22611;-80
2022/11/05 01:51:33;;;;;;;8.70;6.70;;;;;;;9.26;96.83;97079.96;103021;1310;23073;-79
2022/11/05 01:54:09;;;;;;;8.60;6.30;;;;;;;9.27;96.76;97080.92;103104;1309;22598;-79
2022/11/05 01:56:45;;;;;;;8.40;6.70;;;;;;;9.28;97.03;97084.13;103029;1309;23098;-81
2022/11/05 01:59:29;;;;;;;8.90;6.90;;;;;;;9.24;96.72;97093.90;103040;1309;22704;-81
2022/11/05 02:01:59;;;;;;;8.30;7.40;;;;;;;9.19;96.52;97098.66;103154;1309;22881;-81
2022/11/05 02:04:37;;;;;;;8.40;7.30;;;;;;;9.18;96.71;97095.52;103271;1310;24281;-80
2022/11/05 02:07:08;;;;;;;7.90;7.10;;;;;;;9.12;96.40;97101.52;103081;1309;22562;-80
2022/11/05 02:09:53;;;;;;;7.90;7.10;;;;;;;9.09;96.27;97100.85;103222;1307;22470;-81
2022/11/05 02:12:23;;;;;;;9.30;7.90;;;;;;;9.03;96.10;97103.25;103055;1310;24296;-83
2022/11/05 02:14:50;;;;;;;8.50;7.70;;;;;;;8.98;96.09;97103.27;103388;1309;22478;-81
2022/11/05 02:17:56;;;;;;;9.10;8.30;;;;;;;8.94;96.03;97109.50;103345;1305;22871;-82
2022/11/05 02:20:53;;;;;;;8.20;7.40;;;;;;;8.91;96.08;97105.02;103060;1310;22632;-82
2022/11/05 02:23:46;;;;;;;7.80;7.10;;;;;;;8.86;95.91;97105.23;103324;1309;22672;-82
2022/11/05 02:27:02;;;;;;;7.80;7.00;;;;;;;8.80;96.01;97107.02;103319;1309;22632;-81
2022/11/05 02:29:48;;;;;;;;;;;;;;;8.77;96.18;97110.40;102870;1306;22548;-81
2022/11/05 02:32:29;;;;;;;9.60;8.80;;;;;;;8.71;95.77;97112.38;103200;1309;22477;-82
2022/11/05 02:35:33;;;;;;;8.90;8.00;;;;;;;8.66;95.31;97119.41;103383;1309;22614;-81
2022/11/05 02:38:09;;;;;;;8.70;7.90;;;;;;;8.61;95.45;97118.25;103289;1309;22673;-81
2022/11/05 02:40:52;;;;;;;8.10;7.40;;;;;;;8.58;95.97;97117.02;103419;1301;25396;-81
2022/11/05 02:43:45;;;;;;;7.80;7.10;;;;;;;8.55;96.05;97114.58;103071;1309;24030;-81
2022/11/05 02:46:25;;;;;;;8.80;8.00;;;;;;;8.48;95.71;97119.56;102946;1309;22480;-81
2022/11/05 02:49:17;;;;;;;8.00;7.30;;;;;;;8.43;95.81;97123.11;102992;1309;23067;-82
2022/11/05 02:51:57;;;;;;;8.40;7.60;;;;;;;8.39;95.86;97124.86;103289;1293;22500;-81
2022/11/05 02:54:44;;;;;;;7.90;7.20;;;;;;;8.37;95.68;97128.17;103203;1309;25693;-79
2022/11/05 02:57:12;;;;;;;8.80;8.00;;;;;;;8.36;96.22;97140.85;103241;1312;22588;-79
2022/11/05 02:59:40;;;;;;;8.80;8.10;;;;;;;8.34;96.21;97146.33;103089;1309;23010;-80
2022/11/05 03:02:08;;;;;;;10.30;9.40;;;;;;;8.31;96.04;97147.02;103199;1309;22843;-79
2022/11/05 03:04:36;;;;;;;8.90;8.10;;;;;;;8.31;96.07;97157.04;103323;1310;22734;-79
2022/11/05 03:07:24;;;;;;;9.40;8.50;;;;;;;8.31;96.04;97159.75;103352;1309;22635;-79
2022/11/05 03:10:07;;;;;;;9.70;8.70;;;;;;;8.33;96.16;97168.45;103026;1303;22597;-79
2022/11/05 03:12:55;;;;;;;9.80;8.90;;;;;;;8.33;96.13;97178.40;103335;1309;22523;-79
2022/11/05 03:15:59;;;;;;;10.10;8.20;;;;;;;8.31;95.95;97181.60;103065;1296;22624;-79
2022/11/05 03:18:27;;;;;;;8.00;7.20;;;;;;;8.31;96.13;97190.56;103019;1294;23873;-80
2022/11/05 03:21:26;;;;;;;7.40;6.70;;;;;;;8.31;95.94;97196.95;103298;1288;23340;-79
2022/11/05 03:24:20;;;;;;;9.20;7.40;;;;;;;8.29;95.53;97200.81;103222;1309;26474;-79
2022/11/05 03:26:55;;;;;;;7.80;7.00;;;;;;;8.28;95.37;97207.05;103360;1294;25444;-82
2022/11/05 03:29:29;;;;;;;7.80;5.70;;;;;;;8.27;95.24;97202.23;103333;1309;24315;-82
2022/11/05 03:32:01;;;;;;;11.20;6.40;;;;;;;8.27;95.06;97198.77;103306;1310;24353;-82
2022/11/05 03:34:40;;;;;;;9.90;6.30;;;;;;;8.27;95.14;97199.14;103302;1311;22486;-82
2022/11/05 03:37:09;;;;;;;6.60;5.90;;;;;;;8.25;94.76;97197.73;103542;1309;24247;-82
2022/11/05 03:39:45;;;;;;;5.80;4.90;;;;;;;8.25;95.02;97201.66;103420;1303;22728;-81
2022/11/05 03:42:17;;;;;;;6.80;6.10;;;;;;;8.25;94.78;97204.88;102934;1309;24514;-79
2022/11/05 03:44:51;;;;;;;6.30;5.70;;;;;;;8.27;95.15;97200.23;103021;1310;24321;-78
2022/11/05 03:47:25;;;;;;;6.70;6.00;;;;;;;8.23;94.41;97198.36;103157;1309;22864;-79
2022/11/05 03:50:13;;;;;;;6.60;5.50;;;;;;;8.19;94.33;97202.25;103086;1309;22573;-79
2022/11/05 03:53:06;;;;;;;6.80;5.30;;;;;;;8.17;94.48;97207.02;103094;1309;22571;-78
2022/11/05 03:55:41;;;;;;;9.20;6.00;;;;;;;8.17;94.80;97210.73;103074;1311;22474;-79
2022/11/05 03:58:12;;;;;;;6.10;5.50;;;;;;;8.17;94.34;97214.95;103091;1287;25426;-78
2022/11/05 04:00:40;;;;;;;5.60;5.10;;;;;;;8.15;94.24;97222.62;103124;1309;22614;-78
2022/11/05 04:03:08;;;;;;;6.00;5.20;;;;;;;8.11;94.33;97220.55;103060;1312;22738;-78
2022/11/05 04:05:36;;;;;;;5.00;4.50;;;;;;;8.11;94.21;97212.99;103084;1287;25273;-77
2022/11/05 04:13:37;;;;;;;5.20;4.70;;;;;;;8.05;93.71;97216.48;103069;1295;22561;-79
2022/11/05 04:18:52;;;;;;;14.70;11.90;;;;;;;8.06;93.74;97211.85;103183;1309;25255;-78
2022/11/05 04:24:07;;;;;;;10.00;8.50;;;;;;;8.06;93.51;97219.89;103064;1309;24319;-78
2022/11/05 04:26:42;;;;;;;14.40;10.80;;;;;;;8.06;93.61;97221.94;102990;1309;22560;-79
2022/11/05 04:31:57;;;;;;;8.30;6.50;;;;;;;8.07;93.82;97221.16;103019;1305;25468;-80
2022/11/05 04:34:25;;;;;;;7.40;6.50;;;;;;;8.06;93.61;97216.41;102996;1310;25349;-80
2022/11/05 04:36:52;;;;;;;8.80;5.60;;;;;;;8.04;93.62;97222.68;102873;1310;22758;-83
2022/11/05 04:39:20;;;;;;;6.50;4.90;;;;;;;8.04;93.81;97225.59;102839;1310;22886;-77
2022/11/05 04:41:48;;;;;;;8.20;5.60;;;;;;;8.05;93.53;97221.20;103080;1309;25393;-81
2022/11/05 04:44:16;;;;;;;6.90;5.90;;;;;;;8.06;94.03;97217.42;103213;1309;24243;-80
2022/11/05 04:46:44;;;;;;;7.40;5.90;;;;;;;8.05;93.62;97215.09;103402;1309;22499;-81
2022/11/05 04:49:12;;;;;;;6.80;6.10;;;;;;;8.05;93.69;97218.52;103141;1306;22511;-80
2022/11/05 04:51:40;;;;;;;7.20;6.10;;;;;;;8.06;93.89;97223.66;103063;1306;22487;-76
2022/11/05 04:54:08;;;;;;;7.70;5.90;;;;;;;8.05;93.78;97222.60;103076;1303;22593;-79
2022/11/05 04:56:36;;;;;;;7.90;6.30;;;;;;;8.08;93.84;97225.11;103123;1295;22678;-79
2022/11/05 04:59:03;;;;;;;8.00;7.20;;;;;;;8.09;93.99;97226.94;103364;1309;22522;-81
2022/11/05 05:01:31;;;;;;;7.30;6.30;;;;;;;8.07;93.97;97228.67;103198;1303;25354;-80
2022/11/05 05:04:00;;;;;;;8.30;6.50;;;;;;;8.06;94.12;97227.15;103322;1309;24283;-80
2022/11/05 05:06:28;;;;;;;7.00;5.70;;;;;;;8.05;94.57;97233.48;103365;1310;22588;-79
2022/11/05 05:08:56;;;;;;;6.80;5.60;;;;;;;8.04;94.65;97229.71;102985;1309;24400;-78
2022/11/05 05:11:23;;;;;;;7.70;6.20;;;;;;;8.05;94.72;97235.12;103038;1295;23300;-80
2022/11/05 05:13:51;;;;;;;8.30;6.50;;;;;;;8.03;94.79;97237.34;103329;1309;22612;-77
2022/11/05 05:16:22;;;;;;;9.80;7.00;;;;;;;8.00;94.73;97250.56;102963;1313;25274;-79
2022/11/05 05:18:51;;;;;;;7.00;6.30;;;;;;;7.96;94.99;97257.64;103060;1303;22609;-79
2022/11/05 05:21:37;;;;;;;8.60;6.20;;;;;;;7.97;95.42;97256.13;103121;1288;22531;-79
2022/11/05 05:24:17;;;;;;;6.80;5.90;;;;;;;7.97;96.02;97264.50;103095;1309;22697;-78
2022/11/05 05:26:47;;;;;;;7.70;6.80;;;;;;;7.93;95.68;97262.48;103101;1297;22643;-78
2022/11/05 05:29:16;;;;;;;9.90;7.40;;;;;;;7.92;95.86;97270.98;103095;1311;22499;-78
2022/11/05 05:31:44;;;;;;;8.10;6.50;;;;;;;7.89;96.08;97270.98;103107;1309;22508;-78
2022/11/05 05:34:13;;;;;;;8.90;7.40;;;;;;;7.90;96.37;97277.77;102902;1309;22591;-79
2022/11/05 05:36:41;;;;;;;8.00;7.20;;;;;;;7.92;96.91;97270.06;103103;1304;23905;-78
2022/11/05 05:39:12;;;;;;;8.20;7.00;;;;;;;7.88;96.90;97272.08;103079;1309;22968;-79
2022/11/05 05:41:40;;;;;;;9.40;7.30;;;;;;;7.85;96.67;97274.80;103002;1304;23270;-77
2022/11/05 05:44:08;;;;;;;8.40;6.70;;;;;;;7.84;97.15;97280.67;103118;1310;22512;-78
2022/11/05 05:46:36;;;;;;;9.90;6.40;;;;;;;7.85;98.00;97287.63;103085;1303;25315;-78
2022/11/05 05:49:04;;;;;;;8.10;7.30;;;;;;;7.85;98.12;97291.13;102952;1310;22558;-78
2022/11/05 05:51:39;;;;;;;9.90;7.70;;;;;;;7.83;98.42;97299.69;103089;1310;24439;-78
2022/11/05 05:54:07;;;;;;;8.40;7.50;;;;;;;7.83;97.80;97300.48;103059;1302;22600;-78
2022/11/05 05:56:35;;;;;;;9.30;7.90;;;;;;;7.84;98.26;97306.33;103256;1309;22561;-80
2022/11/05 05:59:04;;;;;;;8.60;7.00;;;;;;;7.83;98.12;97311.48;103289;1310;22529;-80
2022/11/05 06:01:32;;;;;;;9.00;8.20;;;;;;;7.86;98.52;97319.05;103381;1310;25297;-80
2022/11/05 06:04:01;;;;;;;10.80;9.30;;;;;;;7.88;99.50;97317.30;103205;1304;25359;-79
2022/11/05 06:06:29;;;;;;;10.70;9.60;;;;;;;7.87;99.70;97324.35;103144;1309;22670;-80
2022/11/05 06:08:57;;;;;;;12.10;11.00;;;;;;;7.86;99.88;97329.45;103124;1310;22498;-80
2022/11/05 06:11:25;;;;;;;12.60;11.40;;;;;;;7.82;99.86;97333.11;103334;1287;23304;-80
2022/11/05 06:13:53;;;;;;;13.60;10.60;;;;;;;7.84;99.97;97341.09;103085;1297;25446;-80
2022/11/05 06:16:21;;;;;;;11.80;10.20;;;;;;;7.84;100.00;97344.77;103296;1297;22531;-79
2022/11/05 06:18:49;;;;;;;10.70;9.60;;;;;;;7.86;100.00;97350.92;103080;1304;22682;-79
2022/11/05 06:21:17;;;;;;;11.70;10.60;;;;;;;7.83;100.00;97351.38;103084;1309;25430;-79
2022/11/05 06:23:47;;;;;;;10.80;8.60;;;;;;;7.82;100.00;97355.54;103364;1309;22750;-79
2022/11/05 06:26:16;;;;;;;10.60;9.60;;;;;;;7.86;100.00;97367.71;103348;1305;22707;-79
2022/11/05 06:28:45;;;;;;;9.80;8.80;;;;;;;7.86;100.00;97368.08;103323;1295;22470;-79
2022/11/05 06:31:14;;;;;;;10.20;9.20;;;;;;;7.87;100.00;97373.65;103106;1309;24423;-78
2022/11/05 06:33:42;;;;;;;12.90;10.90;;;;;;;7.87;100.00;97375.09;103147;1310;22517;-78
2022/11/05 06:36:14;;;;;;;14.20;9.80;;;;;;;7.86;100.00;97376.68;103332;1309;22532;-80
2022/11/05 06:38:42;;;;;;;12.00;10.80;;;;;;;7.87;100.00;97377.89;103353;1297;25539;-80
2022/11/05 06:41:10;;;;;;;9.70;8.80;;;;;;;7.88;100.00;97381.41;103103;1309;23105;-81
2022/11/05 06:43:38;;;;;;;9.60;8.70;;;;;;;7.90;100.00;97385.89;103340;1309;22506;-79
2022/11/05 06:46:08;;;;;;;11.30;10.10;;;;;;;7.89;100.00;97386.86;103080;1304;25265;-79
2022/11/05 06:48:36;;;;;;;10.80;9.70;;;;;;;7.86;100.00;97387.34;103265;1311;22689;-79
2022/11/05 06:51:06;;;;;;;12.00;10.80;;;;;;;7.85;100.00;97393.15;103352;1309;24463;-79
2022/11/05 06:53:34;;;;;;;11.20;10.10;;;;;;;7.86;100.00;97398.17;103108;1310;22529;-79
2022/11/05 06:56:04;;;;;;;11.10;10.10;;;;;;;7.87;100.00;97403.42;102921;1300;25217;-79
2022/11/05 06:58:33;;;;;;;11.30;10.10;;;;;;;7.85;100.00;97407.85;103102;1309;22589;-79
2022/11/05 07:01:08;;;;;;;11.20;10.30;;;;;;;7.81;100.00;97403.89;103079;1288;22627;-78
2022/11/05 07:03:38;;;;;;;11.20;10.10;;;;;;;7.78;100.00;97406.95;103109;1309;22611;-79
2022/11/05 07:06:06;;;;;;;11.70;10.60;;;;;;;7.79;100.00;97407.94;103351;1308;22486;-79
2022/11/05 07:08:36;;;;;;;11.80;10.70;;;;;;;7.79;100.00;97410.69;103090;1309;22731;-78
2022/11/05 07:11:05;;;;;;;11.10;9.90;;;;;;;7.77;100.00;97415.88;103101;1309;22561;-79
2022/11/05 07:13:33;;;;;;;26.20;10.90;;;;;;;7.78;100.00;97414.84;102814;1309;22719;-79
2022/11/05 07:16:01;;;;;;;12.60;11.20;;;;;;;7.77;100.00;97417.25;103003;1310;22613;-78
2022/11/05 07:18:29;;;;;;;12.30;13.70;;;;;;;7.76;100.00;97419.27;103070;1297;25401;-81
2022/11/05 07:20:58;;;;;;;12.40;11.20;;;;;;;7.74;100.00;97423.89;103362;1309;25392;-79
2022/11/05 07:23:27;;;;;;;15.00;13.70;;;;;;;7.76;100.00;97428.92;103062;1309;22596;-79
2022/11/05 07:25:55;;;;;;;15.20;13.80;;;;;;;7.74;100.00;97431.13;103085;1310;25217;-78
2022/11/05 07:28:22;;;;;;;13.80;12.60;;;;;;;7.72;100.00;97438.84;103046;1312;22998;-80
2022/11/05 07:30:50;;;;;;;16.90;15.40;;;;;;;7.69;100.00;97443.70;103324;1308;22733;-80
2022/11/05 07:33:18;;;;;;;16.90;15.40;;;;;;;7.71;100.00;97446.84;103113;1310;23807;-81
2022/11/05 07:35:46;;;;;;;18.50;17.00;;;;;;;7.71;100.00;97447.41;103277;1297;25467;-81
2022/11/05 07:38:14;;;;;;;17.40;16.00;;;;;;;7.72;100.00;97455.63;103309;1309;22745;-82
2022/11/05 07:40:42;;;;;;;17.10;15.60;;;;;;;7.72;100.00;97455.95;103237;1291;22591;-85
2022/11/05 07:43:10;;;;;;;17.70;16.20;;;;;;;7.72;100.00;97457.02;102953;1309;22520;-86
2022/11/05 07:45:38;;;;;;;17.40;15.90;;;;;;;7.65;100.00;97458.46;102976;1312;22480;-80
2022/11/05 07:48:07;;;;;;;17.50;16.00;;;;;;;7.63;100.00;97458.33;102996;1310;24684;-80
2022/11/05 07:50:36;;;;;;;16.50;15.10;;;;;;;7.57;100.00;97458.89;102991;1310;25387;-80
2022/11/05 07:53:06;;;;;;;14.70;13.40;;;;;;;7.54;100.00;97463.81;103038;1310;23330;-82
2022/11/05 07:55:34;;;;;;;13.90;12.70;;;;;;;7.52;100.00;97461.80;103284;1310;25376;-82
2022/11/05 07:58:03;;;;;;;14.80;13.50;;;;;;;7.53;100.00;97463.30;102860;1311;22473;-81
2022/11/05 08:00:32;;;;;;;13.30;12.20;;;;;;;7.52;100.00;97463.85;103265;1304;22467;-83
2022/11/05 08:03:13;;;;;;;15.60;14.20;;;;;;;7.50;100.00;97459.86;103052;1307;24394;-83
2022/11/05 08:05:45;;;;;;;15.20;13.70;;;;;;;7.51;100.00;97464.65;102930;1293;22466;-80
2022/11/05 08:08:18;;;;;;;15.50;14.20;;;;;;;7.51;100.00;97466.17;103205;1309;22465;-81
2022/11/05 08:10:46;;;;;;;15.70;14.50;;;;;;;7.54;100.00;97463.81;103269;1310;23217;-81
2022/11/05 08:13:14;;;;;;;16.60;15.20;;;;;;;7.55;100.00;97465.48;103092;1309;22473;-80
2022/11/05 08:15:43;;;;;;;17.50;16.10;;;;;;;7.55;100.00;97467.14;102919;1310;24382;-81
2022/11/05 08:18:14;;;;;;;26.90;24.50;;;;;;;7.56;100.00;97468.63;103245;1309;22606;-82
2022/11/05 08:20:43;;;;;;;29.30;26.80;;;;;;;7.59;100.00;97468.63;103327;1299;22472;-80
2022/11/05 08:23:11;;;;;;;35.00;32.00;;;;;;;7.61;100.00;97471.02;103945;1309;24286;-79
2022/11/05 08:25:40;;;;;;;35.00;32.10;;;;;;;7.62;100.00;97479.86;103294;1309;22739;-81
2022/11/05 08:28:11;;;;;;;24.90;22.70;;;;;;;7.63;100.00;97481.83;103275;1309;22735;-84
2022/11/05 08:30:40;;;;;;;22.40;20.60;;;;;;;7.64;100.00;97483.89;103393;1305;22560;-81
2022/11/05 08:33:11;;;;;;;23.20;21.10;;;;;;;7.63;100.00;97484.23;103214;1309;25446;-81
2022/11/05 08:35:40;;;;;;;21.60;19.70;;;;;;;7.59;100.00;97488.41;103210;1309;22764;-82
2022/11/05 08:38:12;;;;;;;21.60;19.80;;;;;;;7.59;100.00;97489.02;103119;1309;25387;-83
2022/11/05 08:40:41;;;;;;;25.30;23.20;;;;;;;7.62;100.00;97491.16;102999;1309;22486;-83
2022/11/05 08:43:12;;;;;;;24.60;22.50;;;;;;;7.66;100.00;97493.52;103294;1309;22486;-82
2022/11/05 08:45:41;;;;;;;27.00;24.80;;;;;;;7.67;100.00;97497.58;102884;1310;22513;-81
2022/11/05 08:48:13;;;;;;;26.80;24.60;;;;;;;7.67;100.00;97505.84;102957;1306;25365;-80
2022/11/05 08:50:43;;;;;;;25.20;23.10;;;;;;;7.66;100.00;97506.98;102867;1310;22521;-80
2022/11/05 08:53:12;;;;;;;26.90;24.70;;;;;;;7.65;100.00;97513.48;103112;1309;22519;-82
2022/11/05 08:55:42;;;;;;;29.20;26.70;;;;;;;7.67;100.00;97517.26;103024;1310;22490;-81
2022/11/05 08:58:16;;;;;;;24.60;22.50;;;;;;;7.67;100.00;97520.91;103118;1309;23224;-80
2022/11/05 09:00:47;;;;;;;26.10;23.80;;;;;;;7.66;100.00;97513.14;103036;1309;22436;-80
2022/11/05 09:03:16;;;;;;;24.20;22.30;;;;;;;7.66;100.00;97512.61;103041;1309;25088;-80
2022/11/05 09:05:44;;;;;;;27.30;25.10;;;;;;;7.68;100.00;97517.32;103138;1302;22619;-80
2022/11/05 09:08:15;;;;;;;24.50;22.50;;;;;;;7.70;100.00;97515.39;103080;1297;22869;-81
2022/11/05 09:10:44;;;;;;;30.70;28.10;;;;;;;7.72;100.00;97517.57;103079;1307;24025;-81
2022/11/05 09:13:12;;;;;;;29.70;27.10;;;;;;;7.72;100.00;97522.17;103023;1310;22486;-82
2022/11/05 09:15:48;;;;;;;27.80;25.30;;;;;;;7.75;100.00;97523.17;103262;1283;22497;-82
2022/11/05 09:18:17;;;;;;;27.40;25.10;;;;;;;7.76;100.00;97520.31;103189;1295;24068;-82
2022/11/05 09:20:45;;;;;;;28.00;25.60;;;;;;;7.77;100.00;97527.38;103141;1306;22484;-81
2022/11/05 09:23:14;;;;;;;29.00;26.70;;;;;;;7.78;100.00;97528.50;103111;1297;22576;-81
2022/11/05 09:25:43;;;;;;;27.80;25.40;;;;;;;7.81;100.00;97531.25;103153;1303;22477;-82
2022/11/05 09:28:14;;;;;;;30.60;28.00;;;;;;;7.82;100.00;97529.62;103024;1309;23585;-80
2022/11/05 09:30:49;;;;;;;32.40;29.60;;;;;;;7.83;100.00;97529.02;103182;1287;22476;-79
2022/11/05 09:33:20;;;;;;;30.60;28.00;;;;;;;7.86;100.00;97535.04;103201;1309;22905;-79
2022/11/05 09:35:50;;;;;;;33.80;31.20;;;;;;;7.85;100.00;97536.34;103109;1310;24423;-79
2022/11/05 09:38:18;;;;;;;29.30;27.00;;;;;;;7.84;100.00;97540.52;103045;1310;22541;-83
2022/11/05 09:40:53;;;;;;;28.10;25.70;;;;;;;7.86;100.00;97540.10;103156;1309;25372;-82
2022/11/05 09:43:26;;;;;;;27.40;25.20;;;;;;;7.90;100.00;97542.80;102947;1309;22868;-81
2022/11/05 09:46:05;;;;;;;24.70;22.50;;;;;;;7.93;100.00;97543.46;103132;1309;22487;-81
2022/11/05 09:48:34;;;;;;;30.50;28.10;;;;;;;7.96;100.00;97540.10;103073;1288;24081;-83
2022/11/05 09:51:04;;;;;;;31.60;29.10;;;;;;;7.97;100.00;97539.33;103085;1309;22536;-81
2022/11/05 09:53:35;;;;;;;31.50;28.90;;;;;;;8.02;100.00;97541.41;103163;1289;22552;-80
2022/11/05 09:56:10;;;;;;;31.10;28.10;;;;;;;8.07;100.00;97539.13;103049;1309;22624;-81
2022/11/05 09:58:44;;;;;;;24.90;22.70;;;;;;;8.09;100.00;97540.07;102811;1290;22589;-82
2022/11/05 10:01:21;;;;;;;21.40;19.60;;;;;;;8.06;100.00;97538.81;103154;1288;25293;-80
2022/11/05 10:03:54;;;;;;;21.60;19.80;;;;;;;8.06;100.00;97537.54;103102;1304;26251;-78
2022/11/05 10:06:25;;;;;;;20.80;19.00;;;;;;;8.10;100.00;97547.79;103403;1309;22677;-84
2022/11/05 10:09:02;;;;;;;22.50;20.60;;;;;;;8.11;100.00;97548.31;103623;1309;25540;-81
2022/11/05 10:11:42;;;;;;;18.30;16.60;;;;;;;8.14;100.00;97548.64;103281;1309;24244;-78
2022/11/05 10:14:20;;;;;;;18.00;16.40;;;;;;;8.17;100.00;97549.98;103015;1309;24240;-80
2022/11/05 10:16:54;;;;;;;17.80;16.20;;;;;;;8.18;100.00;97549.98;103003;1287;22627;-81
2022/11/05 10:19:24;;;;;;;;;;;;;;;8.19;100.00;97557.20;103084;1307;23251;-79
2022/11/05 10:22:10;;;;;;;18.00;16.40;;;;;;;8.16;100.00;97559.66;103117;1288;25430;-79
2022/11/05 10:24:45;;;;;;;15.00;13.70;;;;;;;8.13;100.00;97564.59;103169;1287;25382;-81
2022/11/05 10:27:22;;;;;;;14.50;13.10;;;;;;;8.11;100.00;97569.52;103217;1288;24058;-81
2022/11/05 10:29:50;;;;;;;15.60;14.20;;;;;;;8.10;100.00;97570.06;103161;1309;22592;-79
2022/11/05 10:32:29;;;;;;;13.70;12.50;;;;;;;8.11;100.00;97566.24;103116;1309;22623;-81
2022/11/05 10:35:01;;;;;;;12.30;11.30;;;;;;;8.07;100.00;97562.31;103044;1309;22831;-81
2022/11/05 10:37:30;;;;;;;15.00;13.70;;;;;;;8.06;100.00;97561.16;103019;1310;22518;-80
2022/11/05 10:40:29;;;;;;;16.20;14.60;;;;;;;8.09;100.00;97562.19;103016;1310;22612;-82
2022/11/05 10:43:05;;;;;;;15.10;13.60;;;;;;;8.09;100.00;97565.98;102714;1309;22610;-81
2022/11/05 10:45:51;;;;;;;15.20;13.80;;;;;;;8.10;100.00;97573.48;103172;1310;22595;-80
2022/11/05 10:48:25;;;;;;;13.70;12.40;;;;;;;8.10;100.00;97566.73;103011;1309;26021;-80
2022/11/05 10:50:53;;;;;;;14.70;13.40;;;;;;;8.10;100.00;97566.14;103145;1309;22521;-81
2022/11/05 10:53:37;;;;;;;14.70;13.30;;;;;;;8.07;100.00;97569.98;103114;1309;22633;-80
2022/11/05 10:56:29;;;;;;;15.20;13.80;;;;;;;8.06;100.00;97575.32;103237;1288;25343;-80
2022/11/05 10:58:59;;;;;;;14.70;13.40;;;;;;;8.07;100.00;97587.00;103217;1309;22522;-81
2022/11/05 11:01:28;;;;;;;15.00;13.70;;;;;;;8.08;100.00;97589.88;103151;1309;23875;-81
2022/11/05 11:04:19;;;;;;;16.20;14.60;;;;;;;8.09;100.00;97590.83;103003;1306;23408;-82
2022/11/05 11:06:53;;;;;;;16.50;15.00;;;;;;;8.15;100.00;97590.17;103162;1309;23744;-83
2022/11/05 11:09:27;;;;;;;16.70;15.20;;;;;;;8.13;100.00;97593.10;103291;1302;22478;-85
2022/11/05 11:12:06;;;;;;;17.90;16.40;;;;;;;8.13;100.00;97593.63;103443;1309;23034;-83
2022/11/05 11:14:34;;;;;;;18.70;17.00;;;;;;;8.13;100.00;97599.16;103189;1309;22933;-83
2022/11/05 11:17:25;;;;;;;18.20;16.70;;;;;;;8.11;100.00;97602.35;103127;1310;24205;-83
2022/11/05 11:20:21;;;;;;;19.10;17.40;;;;;;;8.10;100.00;97596.77;102953;1310;24382;-86
2022/11/05 11:23:00;;;;;;;17.60;16.10;;;;;;;8.11;100.00;97587.80;103014;1311;25835;-82
2022/11/05 11:25:50;;;;;;;18.20;16.70;;;;;;;8.10;100.00;97589.27;103247;1297;25246;-79
2022/11/05 11:28:34;;;;;;;18.00;16.40;;;;;;;8.12;100.00;97598.74;102926;1287;191349;-80
2022/11/05 11:31:07;;;;;;;20.20;18.40;;;;;;;8.15;100.00;97602.52;103021;1284;22586;-80
2022/11/05 11:33:38;;;;;;;25.30;23.10;;;;;;;8.18;100.00;97605.80;103041;1287;22697;-81
2022/11/05 11:36:09;;;;;;;30.90;27.90;;;;;;;8.21;100.00;97604.10;102859;1306;25374;-82
2022/11/05 11:38:39;;;;;;;33.10;30.10;;;;;;;8.20;100.00;97607.27;103052;1310;24031;-83
2022/11/05 11:41:09;;;;;;;38.20;35.00;;;;;;;8.19;100.00;97603.44;103196;1311;25685;-87
2022/11/05 11:43:40;;;;;;;27.10;24.70;;;;;;;8.28;100.00;97604.01;103356;1310;23396;-83
2022/11/05 11:46:18;;;;;;;27.10;24.70;;;;;;;8.47;100.00;97612.08;103186;1310;22724;-82
2022/11/05 11:48:48;;;;;;;30.20;27.70;;;;;;;8.52;100.00;97608.23;103203;1310;22617;-80
2022/11/05 11:51:29;;;;;;;30.00;27.40;;;;;;;8.64;100.00;97605.52;103246;1310;24242;-80
2022/11/05 11:53:58;;;;;;;26.20;23.60;;;;;;;8.77;100.00;97612.18;103293;1310;25360;-80
2022/11/05 11:56:29;;;;;;;25.20;22.80;;;;;;;8.80;100.00;97617.02;102913;1311;25437;-81
2022/11/05 11:59:07;;;;;;;17.30;15.80;;;;;;;8.76;100.00;97618.70;103373;1310;24220;-81
2022/11/05 12:01:38;;;;;;;15.40;14.10;;;;;;;8.74;100.00;97614.66;103273;1304;22602;-80
2022/11/05 12:04:39;;;;;;;16.60;15.10;;;;;;;8.72;100.00;97612.70;103296;1311;24249;-81
2022/11/05 12:07:16;;;;;;;14.40;13.00;;;;;;;8.73;100.00;97614.09;103334;1310;26581;-82
2022/11/05 12:10:13;;;;;;;14.10;12.70;;;;;;;8.74;100.00;97614.83;103252;1310;22558;-84
2022/11/05 12:13:16;;;;;;;15.10;13.80;;;;;;;8.70;100.00;97618.42;103305;1305;22605;-84
2022/11/05 12:16:05;;;;;;;14.10;12.80;;;;;;;8.68;100.00;97616.37;103301;1310;24218;-85
2022/11/05 12:18:35;;;;;;;15.00;13.70;;;;;;;8.71;100.00;97622.61;103249;1310;22490;-83
2022/11/05 12:21:22;;;;;;;15.10;13.60;;;;;;;8.70;100.00;97627.52;103069;1302;23210;-84
2022/11/05 12:24:29;;;;;;;15.40;14.00;;;;;;;8.66;100.00;97631.92;103277;1297;25447;-85
2022/11/05 12:27:18;;;;;;;16.10;14.70;;;;;;;8.58;100.00;97629.31;103343;1298;25512;-85
2022/11/05 12:30:04;;;;;;;12.60;11.40;;;;;;;8.53;100.00;97635.34;103526;1310;24443;-84